sensor_id;sensor_type;location;lat;lon;timestamp;pressure;altitude;pressure_sealevel;temperature;humidity
70758;BME280;59316;52.964;7.102;2022-09-03T00:00:10;101389.69;;;11.58;100.00
70758;BME280;59316;52.964;7.102;2022-09-03T00:05:28;101386.63;;;11.51;100.00
70758;BME280;59316;52.964;7.102;2022-09-03T00:10:58;101377.59;;;11.55;100.00
70758;BME280;59316;52.964;7.102;2022-09-03T00:16:08;101380.38;;;11.25;100.00
70758;BME280;59316;52.964;7.102;2022-09-03T00:21:17;101374.84;;;11.01;100.00
70758;BME280;59316;52.964;7.102;2022-09-03T00:26:27;101375.72;;;11.01;100.00
70758;BME280;59316;52.964;7.102;2022-09-03T00:31:49;101379.66;;;10.94;100.00
70758;BME280;59316;52.964;7.102;2022-09-03T00:36:54;101380.19;;;11.13;100.00
70758;BME280;59316;52.964;7.102;2022-09-03T00:42:16;101380.31;;;11.12;100.00
70758;BME280;59316;52.964;7.102;2022-09-03T00:47:28;101374.75;;;11.02;100.00
70758;BME280;59316;52.964;7.102;2022-09-03T00:53:06;101374.22;;;10.82;100.00
70758;BME280;59316;52.964;7.102;2022-09-03T00:58:32;101367.81;;;10.72;100.00
70758;BME280;59316;52.964;7.102;2022-09-03T01:14:46;101369.53;;;10.73;100.00
70758;BME280;59316;52.964;7.102;2022-09-03T01:25:12;101367.88;;;10.42;100.00
70758;BME280;59316;52.964;7.102;2022-09-03T01:30:19;101375.97;;;10.53;100.00
70758;BME280;59316;52.964;7.102;2022-09-03T01:35:42;101363.09;;;10.48;100.00
70758;BME280;59316;52.964;7.102;2022-09-03T01:46:25;101370.78;;;10.37;100.00
70758;BME280;59316;52.964;7.102;2022-09-03T01:51:31;101359.91;;;10.43;100.00
70758;BME280;59316;52.964;7.102;2022-09-03T02:02:02;101370.09;;;10.78;100.00
70758;BME280;59316;52.964;7.102;2022-09-03T02:07:05;101368.75;;;10.57;100.00
70758;BME280;59316;52.964;7.102;2022-09-03T02:12:13;101375.16;;;10.37;100.00
70758;BME280;59316;52.964;7.102;2022-09-03T02:17:16;101372.19;;;10.43;100.00
70758;BME280;59316;52.964;7.102;2022-09-03T02:22:19;101371.94;;;10.31;100.00
70758;BME280;59316;52.964;7.102;2022-09-03T02:27:21;101375.84;;;10.40;100.00
70758;BME280;59316;52.964;7.102;2022-09-03T02:32:23;101383.94;;;10.52;100.00
70758;BME280;59316;52.964;7.102;2022-09-03T02:37:26;101377.69;;;10.38;100.00
70758;BME280;59316;52.964;7.102;2022-09-03T02:42:28;101367.81;;;10.58;100.00
70758;BME280;59316;52.964;7.102;2022-09-03T02:47:32;101361.91;;;10.83;100.00
70758;BME280;59316;52.964;7.102;2022-09-03T02:52:37;101363.31;;;11.18;100.00
70758;BME280;59316;52.964;7.102;2022-09-03T02:57:40;101370.91;;;11.22;100.00
70758;BME280;59316;52.964;7.102;2022-09-03T03:02:42;101375.50;;;11.33;100.00
70758;BME280;59316;52.964;7.102;2022-09-03T03:07:44;101375.13;;;11.67;100.00
70758;BME280;59316;52.964;7.102;2022-09-03T03:12:46;101371.94;;;11.89;100.00
70758;BME280;59316;52.964;7.102;2022-09-03T03:17:48;101374.94;;;12.37;100.00
70758;BME280;59316;52.964;7.102;2022-09-03T03:22:51;101375.69;;;12.39;100.00
70758;BME280;59316;52.964;7.102;2022-09-03T03:27:56;101360.09;;;12.36;100.00
70758;BME280;59316;52.964;7.102;2022-09-03T03:32:58;101361.91;;;12.61;98.42
70758;BME280;59316;52.964;7.102;2022-09-03T03:38:00;101358.00;;;12.54;98.89
70758;BME280;59316;52.964;7.102;2022-09-03T03:43:02;101353.19;;;12.48;99.87
70758;BME280;59316;52.964;7.102;2022-09-03T03:48:05;101353.78;;;12.52;98.44
70758;BME280;59316;52.964;7.102;2022-09-03T03:53:07;101354.41;;;12.29;100.00
70758;BME280;59316;52.964;7.102;2022-09-03T03:58:09;101358.47;;;12.08;100.00
70758;BME280;59316;52.964;7.102;2022-09-03T04:03:11;101365.94;;;12.01;100.00
70758;BME280;59316;52.964;7.102;2022-09-03T04:08:13;101359.16;;;11.70;100.00
70758;BME280;59316;52.964;7.102;2022-09-03T04:13:16;101362.00;;;11.67;100.00
70758;BME280;59316;52.964;7.102;2022-09-03T04:18:18;101357.34;;;11.43;100.00
70758;BME280;59316;52.964;7.102;2022-09-03T04:23:20;101350.88;;;11.48;100.00
70758;BME280;59316;52.964;7.102;2022-09-03T04:28:22;101360.56;;;11.34;100.00
70758;BME280;59316;52.964;7.102;2022-09-03T04:33:26;101355.72;;;11.13;100.00
70758;BME280;59316;52.964;7.102;2022-09-03T04:38:28;101345.88;;;11.02;100.00
70758;BME280;59316;52.964;7.102;2022-09-03T04:43:31;101354.03;;;10.83;100.00
70758;BME280;59316;52.964;7.102;2022-09-03T04:48:34;101356.88;;;10.80;100.00
70758;BME280;59316;52.964;7.102;2022-09-03T04:53:40;101354.25;;;10.65;100.00
70758;BME280;59316;52.964;7.102;2022-09-03T04:58:43;101357.13;;;10.61;100.00
70758;BME280;59316;52.964;7.102;2022-09-03T05:03:46;101366.59;;;10.63;100.00
70758;BME280;59316;52.964;7.102;2022-09-03T05:08:50;101370.44;;;10.72;100.00
70758;BME280;59316;52.964;7.102;2022-09-03T05:13:55;101361.53;;;10.89;100.00
70758;BME280;59316;52.964;7.102;2022-09-03T05:18:58;101370.84;;;10.95;100.00
70758;BME280;59316;52.964;7.102;2022-09-03T05:24:00;101358.28;;;11.00;100.00
70758;BME280;59316;52.964;7.102;2022-09-03T05:29:04;101360.13;;;11.27;100.00
70758;BME280;59316;52.964;7.102;2022-09-03T05:34:07;101350.81;;;11.36;100.00
70758;BME280;59316;52.964;7.102;2022-09-03T05:39:09;101361.00;;;11.55;100.00
70758;BME280;59316;52.964;7.102;2022-09-03T05:44:11;101350.72;;;11.64;100.00
70758;BME280;59316;52.964;7.102;2022-09-03T05:49:14;101352.19;;;11.83;100.00
70758;BME280;59316;52.964;7.102;2022-09-03T05:54:16;101350.38;;;12.11;100.00
70758;BME280;59316;52.964;7.102;2022-09-03T05:59:18;101348.63;;;12.37;100.00
70758;BME280;59316;52.964;7.102;2022-09-03T06:04:20;101345.69;;;12.55;100.00
70758;BME280;59316;52.964;7.102;2022-09-03T06:09:22;101344.09;;;12.78;100.00
70758;BME280;59316;52.964;7.102;2022-09-03T06:14:25;101348.06;;;12.97;100.00
70758;BME280;59316;52.964;7.102;2022-09-03T06:19:27;101344.78;;;13.19;100.00
70758;BME280;59316;52.964;7.102;2022-09-03T06:24:29;101340.53;;;13.29;99.28
70758;BME280;59316;52.964;7.102;2022-09-03T06:29:34;101336.94;;;13.43;98.07
70758;BME280;59316;52.964;7.102;2022-09-03T06:34:36;101346.38;;;13.58;98.31
70758;BME280;59316;52.964;7.102;2022-09-03T06:39:38;101341.03;;;13.71;97.62
70758;BME280;59316;52.964;7.102;2022-09-03T06:44:40;101337.81;;;14.03;93.89
70758;BME280;59316;52.964;7.102;2022-09-03T06:49:42;101333.19;;;14.41;91.82
70758;BME280;59316;52.964;7.102;2022-09-03T06:54:45;101339.03;;;15.14;87.35
70758;BME280;59316;52.964;7.102;2022-09-03T06:59:47;101335.31;;;15.93;80.40
70758;BME280;59316;52.964;7.102;2022-09-03T07:04:49;101341.63;;;16.65;75.45
70758;BME280;59316;52.964;7.102;2022-09-03T07:09:51;101333.34;;;17.40;72.89
70758;BME280;59316;52.964;7.102;2022-09-03T07:14:53;101337.59;;;18.01;67.97
70758;BME280;59316;52.964;7.102;2022-09-03T07:19:55;101339.16;;;18.51;63.89
70758;BME280;59316;52.964;7.102;2022-09-03T07:24:57;101324.09;;;18.90;61.30
70758;BME280;59316;52.964;7.102;2022-09-03T07:30:00;101324.63;;;19.39;58.65
70758;BME280;59316;52.964;7.102;2022-09-03T07:35:02;101328.06;;;19.68;56.58
70758;BME280;59316;52.964;7.102;2022-09-03T07:40:05;101328.97;;;19.94;55.48
70758;BME280;59316;52.964;7.102;2022-09-03T07:45:07;101330.38;;;20.25;55.13
70758;BME280;59316;52.964;7.102;2022-09-03T07:50:09;101331.34;;;20.76;52.30
70758;BME280;59316;52.964;7.102;2022-09-03T07:55:12;101333.41;;;21.50;50.36
70758;BME280;59316;52.964;7.102;2022-09-03T08:00:15;101339.25;;;21.54;50.90
70758;BME280;59316;52.964;7.102;2022-09-03T08:05:17;101339.28;;;21.95;46.88
70758;BME280;59316;52.964;7.102;2022-09-03T08:10:23;101329.53;;;22.35;47.15
70758;BME280;59316;52.964;7.102;2022-09-03T08:15:28;101327.44;;;22.79;45.55
70758;BME280;59316;52.964;7.102;2022-09-03T08:20:30;101325.75;;;22.86;46.49
70758;BME280;59316;52.964;7.102;2022-09-03T08:25:32;101339.94;;;23.26;44.25
70758;BME280;59316;52.964;7.102;2022-09-03T08:30:34;101338.91;;;23.59;43.09
70758;BME280;59316;52.964;7.102;2022-09-03T08:35:37;101336.47;;;24.10;42.98
70758;BME280;59316;52.964;7.102;2022-09-03T08:40:39;101339.38;;;24.83;41.23
70758;BME280;59316;52.964;7.102;2022-09-03T08:45:41;101337.16;;;24.57;41.82
70758;BME280;59316;52.964;7.102;2022-09-03T08:50:46;101335.56;;;24.63;39.51
70758;BME280;59316;52.964;7.102;2022-09-03T08:56:07;101339.03;;;25.23;39.09
70758;BME280;59316;52.964;7.102;2022-09-03T09:06:34;101329.72;;;25.62;36.58
70758;BME280;59316;52.964;7.102;2022-09-03T09:11:57;101328.91;;;25.62;36.65
70758;BME280;59316;52.964;7.102;2022-09-03T09:22:33;101316.19;;;25.99;36.28
70758;BME280;59316;52.964;7.102;2022-09-03T09:27:36;101323.22;;;26.63;36.83
70758;BME280;59316;52.964;7.102;2022-09-03T09:32:38;101318.47;;;27.07;35.15
70758;BME280;59316;52.964;7.102;2022-09-03T09:37:52;101315.78;;;27.07;34.25
70758;BME280;59316;52.964;7.102;2022-09-03T09:48:20;101311.22;;;27.08;33.88
70758;BME280;59316;52.964;7.102;2022-09-03T09:53:25;101306.28;;;27.31;32.98
70758;BME280;59316;52.964;7.102;2022-09-03T09:58:29;101312.16;;;27.42;32.94
70758;BME280;59316;52.964;7.102;2022-09-03T10:03:32;101311.31;;;27.48;32.23
70758;BME280;59316;52.964;7.102;2022-09-03T10:08:34;101308.41;;;27.70;32.17
70758;BME280;59316;52.964;7.102;2022-09-03T10:13:42;101311.34;;;28.08;31.04
70758;BME280;59316;52.964;7.102;2022-09-03T10:19:08;101306.97;;;28.14;31.06
70758;BME280;59316;52.964;7.102;2022-09-03T10:29:32;101304.91;;;28.82;30.07
70758;BME280;59316;52.964;7.102;2022-09-03T10:35:02;101297.81;;;29.51;28.85
70758;BME280;59316;52.964;7.102;2022-09-03T10:40:43;101303.81;;;29.28;28.36
70758;BME280;59316;52.964;7.102;2022-09-03T10:50:55;101296.72;;;29.84;26.88
70758;BME280;59316;52.964;7.102;2022-09-03T10:56:13;101300.22;;;29.02;28.02
70758;BME280;59316;52.964;7.102;2022-09-03T11:06:56;101290.28;;;29.60;26.88
70758;BME280;59316;52.964;7.102;2022-09-03T11:12:13;101291.06;;;30.11;26.53
70758;BME280;59316;52.964;7.102;2022-09-03T11:17:31;101285.06;;;29.33;27.73
70758;BME280;59316;52.964;7.102;2022-09-03T11:22:34;101275.59;;;29.74;26.67
70758;BME280;59316;52.964;7.102;2022-09-03T11:32:52;101275.97;;;31.08;24.88
70758;BME280;59316;52.964;7.102;2022-09-03T11:38:05;101270.72;;;31.49;24.64
70758;BME280;59316;52.964;7.102;2022-09-03T11:43:33;101277.41;;;30.92;25.31
70758;BME280;59316;52.964;7.102;2022-09-03T11:48:47;101271.38;;;30.60;24.77
70758;BME280;59316;52.964;7.102;2022-09-03T11:54:04;101264.81;;;31.28;25.21
70758;BME280;59316;52.964;7.102;2022-09-03T12:04:15;101265.41;;;31.30;24.79
70758;BME280;59316;52.964;7.102;2022-09-03T12:15:29;101251.25;;;30.86;25.27
70758;BME280;59316;52.964;7.102;2022-09-03T12:20:37;101255.75;;;30.62;24.54
70758;BME280;59316;52.964;7.102;2022-09-03T12:25:44;101250.44;;;30.97;24.44
70758;BME280;59316;52.964;7.102;2022-09-03T12:30:46;101249.75;;;31.32;25.30
70758;BME280;59316;52.964;7.102;2022-09-03T12:35:56;101246.69;;;30.68;24.54
70758;BME280;59316;52.964;7.102;2022-09-03T12:41:00;101245.50;;;30.64;25.14
70758;BME280;59316;52.964;7.102;2022-09-03T12:46:24;101238.56;;;29.75;25.47
70758;BME280;59316;52.964;7.102;2022-09-03T12:51:40;101232.69;;;30.59;25.14
70758;BME280;59316;52.964;7.102;2022-09-03T12:56:57;101221.66;;;30.72;24.41
70758;BME280;59316;52.964;7.102;2022-09-03T13:02:15;101223.56;;;31.26;23.79
70758;BME280;59316;52.964;7.102;2022-09-03T13:07:23;101220.28;;;31.36;23.80
70758;BME280;59316;52.964;7.102;2022-09-03T13:12:41;101213.19;;;31.94;23.95
70758;BME280;59316;52.964;7.102;2022-09-03T13:18:07;101205.16;;;32.11;23.09
70758;BME280;59316;52.964;7.102;2022-09-03T13:29:00;101196.84;;;31.18;24.06
70758;BME280;59316;52.964;7.102;2022-09-03T13:34:19;101203.66;;;31.32;25.20
70758;BME280;59316;52.964;7.102;2022-09-03T13:39:37;101193.66;;;31.21;24.18
70758;BME280;59316;52.964;7.102;2022-09-03T13:44:58;101190.84;;;30.97;25.11
70758;BME280;59316;52.964;7.102;2022-09-03T13:55:45;101198.94;;;31.75;25.00
70758;BME280;59316;52.964;7.102;2022-09-03T14:01:03;101192.38;;;30.81;25.23
70758;BME280;59316;52.964;7.102;2022-09-03T14:27:04;101185.94;;;30.64;25.78
70758;BME280;59316;52.964;7.102;2022-09-03T14:43:47;101180.19;;;30.42;27.43
70758;BME280;59316;52.964;7.102;2022-09-03T14:54:10;101174.19;;;31.24;26.34
70758;BME280;59316;52.964;7.102;2022-09-03T15:00:17;101181.06;;;30.84;27.31
70758;BME280;59316;52.964;7.102;2022-09-03T15:20:49;101188.91;;;29.95;29.06
70758;BME280;59316;52.964;7.102;2022-09-03T15:26:09;101188.94;;;30.25;28.69
70758;BME280;59316;52.964;7.102;2022-09-03T15:36:43;101191.25;;;30.70;27.63
70758;BME280;59316;52.964;7.102;2022-09-03T15:41:52;101185.19;;;30.26;26.81
70758;BME280;59316;52.964;7.102;2022-09-03T15:47:08;101193.31;;;30.07;28.44
70758;BME280;59316;52.964;7.102;2022-09-03T15:58:03;101191.53;;;29.57;28.82
70758;BME280;59316;52.964;7.102;2022-09-03T16:03:10;101182.38;;;29.08;29.83
70758;BME280;59316;52.964;7.102;2022-09-03T16:24:37;101198.94;;;27.82;34.66
70758;BME280;59316;52.964;7.102;2022-09-03T16:30:09;101196.50;;;27.54;33.09
70758;BME280;59316;52.964;7.102;2022-09-03T16:46:01;101194.81;;;25.60;38.86
70758;BME280;59316;52.964;7.102;2022-09-03T17:18:57;101211.91;;;23.15;44.03
70758;BME280;59316;52.964;7.102;2022-09-03T17:24:12;101212.28;;;23.03;46.51
70758;BME280;59316;52.964;7.102;2022-09-03T17:29:34;101212.91;;;22.82;45.53
70758;BME280;59316;52.964;7.102;2022-09-03T17:45:19;101227.63;;;21.74;49.28
70758;BME280;59316;52.964;7.102;2022-09-03T17:50:30;101232.81;;;21.18;52.20
70758;BME280;59316;52.964;7.102;2022-09-03T17:55:37;101225.22;;;20.72;54.89
70758;BME280;59316;52.964;7.102;2022-09-03T18:06:17;101246.41;;;19.86;57.03
70758;BME280;59316;52.964;7.102;2022-09-03T18:11:36;101254.91;;;19.54;55.82
70758;BME280;59316;52.964;7.102;2022-09-03T18:17:13;101266.13;;;19.21;59.78
70758;BME280;59316;52.964;7.102;2022-09-03T18:22:16;101256.97;;;18.78;63.80
70758;BME280;59316;52.964;7.102;2022-09-03T18:27:33;101277.88;;;18.35;66.84
70758;BME280;59316;52.964;7.102;2022-09-03T18:32:37;101278.06;;;18.04;69.09
70758;BME280;59316;52.964;7.102;2022-09-03T18:37:39;101284.66;;;17.71;71.25
70758;BME280;59316;52.964;7.102;2022-09-03T18:48:38;101302.50;;;17.29;73.60
70758;BME280;59316;52.964;7.102;2022-09-03T19:15:04;101337.88;;;16.47;79.39
70758;BME280;59316;52.964;7.102;2022-09-03T19:20:13;101349.84;;;16.41;80.46
70758;BME280;59316;52.964;7.102;2022-09-03T19:25:20;101349.53;;;16.13;83.13
70758;BME280;59316;52.964;7.102;2022-09-03T19:30:28;101354.75;;;16.03;82.25
70758;BME280;59316;52.964;7.102;2022-09-03T19:35:41;101357.16;;;16.07;82.78
70758;BME280;59316;52.964;7.102;2022-09-03T19:51:43;101363.81;;;16.22;79.09
70758;BME280;59316;52.964;7.102;2022-09-03T19:56:47;101368.78;;;16.15;80.41
70758;BME280;59316;52.964;7.102;2022-09-03T20:01:50;101377.19;;;16.20;79.72
70758;BME280;59316;52.964;7.102;2022-09-03T20:06:53;101382.88;;;16.04;81.86
70758;BME280;59316;52.964;7.102;2022-09-03T20:11:57;101387.03;;;15.97;80.75
70758;BME280;59316;52.964;7.102;2022-09-03T21:00:10;101417.09;;;14.49;87.45
70758;BME280;59316;52.964;7.102;2022-09-03T21:05:20;101425.66;;;14.28;88.13
70758;BME280;59316;52.964;7.102;2022-09-03T21:11:00;101438.81;;;14.17;89.06
70758;BME280;59316;52.964;7.102;2022-09-03T21:27:21;101442.06;;;13.72;90.13
70758;BME280;59316;52.964;7.102;2022-09-03T21:32:40;101446.41;;;13.97;86.29
70758;BME280;59316;52.964;7.102;2022-09-03T21:37:59;101458.41;;;14.01;86.23
70758;BME280;59316;52.964;7.102;2022-09-03T21:43:15;101461.25;;;13.74;88.63
70758;BME280;59316;52.964;7.102;2022-09-03T21:48:25;101465.75;;;13.85;86.06
70758;BME280;59316;52.964;7.102;2022-09-03T22:03:58;101475.59;;;13.83;86.15
70758;BME280;59316;52.964;7.102;2022-09-03T22:09:31;101469.41;;;13.71;86.29
70758;BME280;59316;52.964;7.102;2022-09-03T22:14:43;101471.63;;;13.64;86.75
70758;BME280;59316;52.964;7.102;2022-09-03T22:19:46;101481.13;;;13.54;87.40
70758;BME280;59316;52.964;7.102;2022-09-03T22:30:05;101466.59;;;13.85;83.96
70758;BME280;59316;52.964;7.102;2022-09-03T22:41:08;101467.63;;;14.20;80.72
70758;BME280;59316;52.964;7.102;2022-09-03T22:46:22;101461.09;;;14.13;80.93
70758;BME280;59316;52.964;7.102;2022-09-03T22:51:26;101455.88;;;14.00;81.33
70758;BME280;59316;52.964;7.102;2022-09-03T22:56:38;101465.00;;;13.96;81.41
70758;BME280;59316;52.964;7.102;2022-09-03T23:01:47;101470.06;;;13.86;81.66
70758;BME280;59316;52.964;7.102;2022-09-03T23:07:08;101463.56;;;13.79;81.91
70758;BME280;59316;52.964;7.102;2022-09-03T23:12:26;101468.47;;;13.59;83.96
70758;BME280;59316;52.964;7.102;2022-09-03T23:17:39;101476.81;;;13.40;85.88
70758;BME280;59316;52.964;7.102;2022-09-03T23:22:50;101478.91;;;13.22;88.01
70758;BME280;59316;52.964;7.102;2022-09-03T23:27:58;101486.81;;;13.22;86.86
70758;BME280;59316;52.964;7.102;2022-09-03T23:33:01;101483.78;;;13.02;88.29
